createdAt,value
2023-04-12T00:00:00.561Z,100.00
2023-04-12T00:01:03.419Z,100.00
2023-04-12T00:02:06.616Z,100.00
2023-04-12T00:03:10.437Z,100.00
2023-04-12T00:04:14.704Z,100.00
2023-04-12T00:05:18.105Z,100.00
2023-04-12T00:06:25.279Z,100.00
2023-04-12T00:07:27.909Z,100.00
2023-04-12T00:08:33.153Z,100.00
2023-04-12T00:09:36.427Z,100.00
2023-04-12T00:10:38.072Z,100.00
2023-04-12T00:11:40.492Z,100.00
2023-04-12T00:12:42.029Z,100.00
2023-04-12T00:13:44.437Z,100.00
2023-04-12T00:14:46.686Z,100.00
2023-04-12T00:15:50.383Z,100.00
2023-04-12T00:16:51.940Z,99.15
2023-04-12T00:17:54.416Z,97.48
2023-04-12T00:18:57.391Z,95.79
2023-04-12T00:19:59.902Z,95.35
2023-04-12T00:21:01.398Z,96.17
2023-04-12T00:22:05.522Z,95.35
2023-04-12T00:23:07.123Z,94.11
2023-04-12T00:24:09.962Z,93.31
2023-04-12T00:25:11.738Z,93.57
2023-04-12T00:26:14.943Z,92.92
2023-04-12T00:27:16.486Z,92.58
2023-04-12T00:28:20.453Z,91.83
2023-04-12T00:29:22.248Z,91.16
2023-04-12T00:30:24.817Z,91.41
2023-04-12T00:31:26.376Z,92.08
2023-04-12T00:32:28.945Z,93.01
2023-04-12T00:33:30.554Z,96.34
2023-04-12T00:34:33.080Z,97.79
2023-04-12T00:35:35.003Z,99.72
2023-04-12T00:36:37.532Z,100.00
2023-04-12T00:37:40.574Z,100.00
2023-04-12T00:38:43.266Z,100.00
2023-04-12T00:39:45.052Z,100.00
2023-04-12T00:40:47.493Z,100.00
2023-04-12T00:41:49.102Z,100.00
2023-04-12T00:42:51.505Z,100.00
2023-04-12T00:43:53.048Z,100.00
2023-04-12T00:44:55.506Z,98.12
2023-04-12T00:45:58.391Z,96.56
2023-04-12T00:47:01.455Z,95.58
2023-04-12T00:48:03.665Z,94.83
2023-04-12T00:49:06.539Z,94.96
2023-04-12T00:50:09.609Z,94.87
2023-04-12T00:51:12.069Z,93.79
2023-04-12T00:52:15.659Z,92.54
2023-04-12T00:53:19.673Z,93.58
2023-04-12T00:54:22.187Z,95.89
2023-04-12T00:55:24.682Z,96.42
2023-04-12T00:56:28.017Z,96.64
2023-04-12T00:57:35.325Z,97.20
2023-04-12T00:58:36.829Z,97.48
2023-04-12T00:59:39.353Z,97.20
2023-04-12T01:00:41.233Z,96.76
2023-04-12T01:01:45.407Z,96.69
2023-04-12T01:02:50.318Z,96.82
2023-04-12T01:03:55.220Z,96.31
2023-04-12T01:04:58.524Z,95.96
2023-04-12T01:06:10.490Z,96.85
2023-04-12T01:07:22.535Z,97.70
2023-04-12T01:08:35.294Z,97.58
2023-04-12T01:09:53.272Z,97.36
2023-04-12T01:11:01.911Z,95.40
2023-04-12T01:12:12.047Z,93.42
2023-04-12T01:13:26.008Z,92.06
2023-04-12T01:14:35.512Z,92.89
2023-04-12T01:15:42.769Z,97.45
2023-04-12T01:16:51.036Z,100.00
2023-04-12T01:17:58.846Z,100.00
2023-04-12T01:19:06.282Z,99.94
2023-04-12T01:20:16.727Z,98.91
2023-04-12T01:21:24.305Z,96.41
2023-04-12T01:22:39.395Z,94.85
2023-04-12T01:23:58.656Z,95.80
2023-04-12T01:25:11.734Z,97.85
2023-04-12T01:26:32.976Z,99.20
2023-04-12T01:27:43.330Z,100.00
2023-04-12T01:28:46.992Z,100.00
2023-04-12T01:29:51.322Z,99.78
2023-04-12T01:30:55.426Z,97.62
2023-04-12T01:32:00.116Z,95.87
2023-04-12T01:33:06.502Z,94.21
2023-04-12T01:34:10.881Z,93.84
2023-04-12T01:35:14.651Z,95.57
2023-04-12T01:36:22.310Z,95.77
2023-04-12T01:37:24.534Z,96.29
2023-04-12T01:38:28.318Z,96.04
2023-04-12T01:39:32.462Z,95.49
2023-04-12T01:40:35.706Z,96.83
2023-04-12T01:41:41.061Z,97.33
2023-04-12T01:42:43.959Z,97.48
2023-04-12T01:43:47.730Z,97.36
2023-04-12T01:44:50.295Z,97.18
2023-04-12T01:45:52.847Z,96.04
2023-04-12T01:46:54.510Z,94.04
2023-04-12T01:47:57.388Z,93.82
2023-04-12T01:48:58.977Z,94.46
2023-04-12T01:50:15.039Z,95.48
2023-04-12T01:51:23.519Z,94.65
2023-04-12T01:52:32.003Z,93.71
2023-04-12T01:53:41.207Z,93.51
2023-04-12T01:54:45.721Z,92.88
2023-04-12T01:55:48.822Z,91.82
2023-04-12T01:56:58.737Z,90.73
2023-04-12T01:58:03.226Z,90.37
2023-04-12T01:59:08.455Z,90.56
2023-04-12T02:00:11.772Z,91.29
2023-04-12T02:01:15.393Z,93.55
2023-04-12T02:02:17.942Z,94.61
2023-04-12T02:03:22.068Z,94.54
2023-04-12T02:04:26.367Z,94.99
2023-04-12T02:05:28.804Z,94.69
2023-04-12T02:06:31.844Z,94.43
2023-04-12T02:07:35.287Z,93.54
2023-04-12T02:08:37.476Z,91.97
2023-04-12T02:09:40.851Z,91.43
2023-04-12T02:10:42.399Z,90.33
2023-04-12T02:11:47.571Z,89.19
2023-04-12T02:12:49.233Z,88.52
2023-04-12T02:13:53.048Z,88.60
2023-04-12T02:14:54.584Z,88.12
2023-04-12T02:15:59.155Z,87.82
2023-04-12T02:17:02.404Z,87.65
2023-04-12T02:18:05.204Z,87.33
2023-04-12T02:19:08.416Z,89.60
2023-04-12T02:20:12.014Z,92.36
2023-04-12T02:21:13.586Z,95.20
2023-04-12T02:22:17.213Z,97.41
2023-04-12T02:23:18.672Z,98.98
2023-04-12T02:24:21.396Z,98.82
2023-04-12T02:25:23.025Z,97.37
2023-04-12T02:26:25.741Z,95.68
2023-04-12T02:27:27.292Z,94.16
2023-04-12T02:28:30.310Z,92.87
2023-04-12T02:29:33.690Z,91.68
2023-04-12T02:30:36.196Z,90.46
2023-04-12T02:31:39.216Z,89.29
2023-04-12T02:32:45.257Z,89.04
2023-04-12T02:33:46.960Z,88.23
2023-04-12T02:34:51.394Z,87.67
2023-04-12T02:35:53.018Z,87.61
2023-04-12T02:36:55.479Z,86.87
2023-04-12T02:37:57.842Z,86.60
2023-04-12T02:39:00.278Z,87.14
2023-04-12T02:40:02.468Z,86.76
2023-04-12T02:41:05.549Z,86.81
2023-04-12T02:42:07.158Z,86.63
2023-04-12T02:43:09.868Z,87.43
2023-04-12T02:44:11.519Z,87.71
2023-04-12T02:45:15.407Z,87.44
2023-04-12T02:46:25.274Z,88.23
2023-04-12T02:47:29.191Z,89.12
2023-04-12T02:48:31.035Z,90.18
2023-04-12T02:49:33.560Z,91.28
2023-04-12T02:50:37.382Z,94.06
2023-04-12T02:51:39.828Z,94.85
2023-04-12T02:52:41.317Z,95.76
2023-04-12T02:53:44.215Z,97.07
2023-04-12T02:54:45.768Z,97.14
2023-04-12T02:55:48.257Z,95.98
2023-04-12T02:56:49.772Z,94.05
2023-04-12T02:57:53.621Z,92.03
2023-04-12T02:58:55.268Z,92.02
2023-04-12T02:59:57.792Z,91.44
2023-04-12T03:01:01.066Z,91.16
2023-04-12T03:02:03.736Z,90.54
2023-04-12T03:03:05.417Z,89.64
2023-04-12T03:04:08.175Z,88.77
2023-04-12T03:05:10.362Z,89.78
2023-04-12T03:06:12.940Z,89.87
2023-04-12T03:07:14.413Z,89.69
2023-04-12T03:08:16.905Z,88.91
2023-04-12T03:09:18.480Z,88.75
2023-04-12T03:10:20.981Z,88.43
2023-04-12T03:11:22.537Z,87.82
2023-04-12T03:12:24.954Z,87.62
2023-04-12T03:13:26.488Z,86.96
2023-04-12T03:14:28.941Z,86.53
2023-04-12T03:15:30.551Z,85.96
2023-04-12T03:16:35.564Z,85.38
2023-04-12T03:17:37.097Z,85.30
2023-04-12T03:18:39.598Z,85.13
2023-04-12T03:19:41.172Z,85.00
2023-04-12T03:20:45.982Z,85.47
2023-04-12T03:21:48.910Z,86.58
2023-04-12T03:22:51.758Z,88.12
2023-04-12T03:23:53.262Z,88.61
2023-04-12T03:24:55.759Z,88.71
2023-04-12T03:25:57.279Z,88.08
2023-04-12T03:26:59.744Z,87.26
2023-04-12T03:28:01.219Z,86.88
2023-04-12T03:29:05.966Z,86.45
2023-04-12T03:30:08.851Z,86.45
2023-04-12T03:31:12.564Z,86.10
2023-04-12T03:32:15.474Z,87.36
2023-04-12T03:33:17.950Z,87.29
2023-04-12T03:34:19.540Z,86.91
2023-04-12T03:35:22.062Z,86.39
2023-04-12T03:36:24.760Z,86.03
2023-04-12T03:37:26.547Z,85.79
2023-04-12T03:38:29.026Z,86.31
2023-04-12T03:39:30.511Z,86.23
2023-04-12T03:40:32.973Z,86.32
2023-04-12T03:41:34.508Z,86.12
2023-04-12T03:42:37.487Z,86.62
2023-04-12T03:43:39.046Z,86.14
2023-04-12T03:44:41.747Z,86.43
2023-04-12T03:45:43.345Z,86.04
2023-04-12T03:46:46.053Z,85.91
2023-04-12T03:47:49.471Z,85.58
2023-04-12T03:48:52.349Z,84.71
2023-04-12T03:50:10.212Z,85.03
2023-04-12T03:51:13.890Z,85.25
2023-04-12T03:52:15.752Z,85.48
2023-04-12T03:53:18.248Z,85.25
2023-04-12T03:54:19.821Z,85.42
2023-04-12T03:55:22.461Z,85.59
2023-04-12T03:56:24.023Z,85.60
2023-04-12T03:57:27.024Z,86.30
2023-04-12T03:58:28.548Z,86.71
2023-04-12T03:59:32.749Z,85.95
2023-04-12T04:00:34.820Z,85.67
2023-04-12T04:01:39.032Z,85.97
2023-04-12T04:02:40.703Z,86.11
2023-04-12T04:03:45.962Z,86.18
2023-04-12T04:04:48.148Z,87.81
2023-04-12T04:05:50.804Z,90.58
2023-04-12T04:06:52.555Z,91.45
2023-04-12T04:07:55.038Z,91.73
2023-04-12T04:08:57.109Z,94.07
2023-04-12T04:09:59.789Z,94.59
2023-04-12T04:11:01.301Z,94.44
2023-04-12T04:12:03.811Z,93.96
2023-04-12T04:13:05.363Z,93.40
2023-04-12T04:14:08.386Z,92.28
2023-04-12T04:15:11.247Z,91.07
2023-04-12T04:16:14.018Z,90.52
2023-04-12T04:17:15.578Z,89.70
2023-04-12T04:18:18.070Z,90.25
2023-04-12T04:19:21.234Z,89.77
2023-04-12T04:20:24.238Z,89.19
2023-04-12T04:21:26.735Z,89.44
2023-04-12T04:22:29.475Z,89.59
2023-04-12T04:23:38.891Z,89.53
2023-04-12T04:24:41.698Z,88.60
2023-04-12T04:25:43.390Z,88.13
2023-04-12T04:26:46.004Z,87.55
2023-04-12T04:27:49.622Z,87.37
2023-04-12T04:28:52.196Z,86.84
2023-04-12T04:29:53.724Z,86.37
2023-04-12T04:30:57.761Z,85.57
2023-04-12T04:31:59.288Z,85.34
2023-04-12T04:33:01.827Z,85.42
2023-04-12T04:34:05.367Z,85.38
2023-04-12T04:35:09.937Z,85.26
2023-04-12T04:36:12.704Z,85.12
2023-04-12T04:37:17.408Z,85.47
2023-04-12T04:38:20.209Z,86.47
2023-04-12T04:39:23.037Z,86.76
2023-04-12T04:40:25.026Z,87.12
2023-04-12T04:41:27.626Z,87.15
2023-04-12T04:42:29.704Z,86.87
2023-04-12T04:43:34.188Z,87.42
2023-04-12T04:44:36.020Z,87.91
2023-04-12T04:45:41.328Z,87.94
2023-04-12T04:46:43.840Z,87.63
2023-04-12T04:47:45.424Z,88.86
2023-04-12T04:48:48.499Z,89.92
2023-04-12T04:49:50.081Z,90.26
2023-04-12T04:50:54.306Z,89.90
2023-04-12T04:51:56.001Z,89.18
2023-04-12T04:52:58.701Z,88.17
2023-04-12T04:54:00.883Z,87.91
2023-04-12T04:55:05.749Z,88.39
2023-04-12T04:56:09.399Z,88.29
2023-04-12T04:57:11.868Z,88.41
2023-04-12T04:58:14.199Z,88.39
2023-04-12T04:59:17.646Z,89.99
2023-04-12T05:00:20.198Z,90.55
2023-04-12T05:01:25.800Z,90.90
2023-04-12T05:02:27.503Z,91.34
2023-04-12T05:03:30.973Z,91.35
2023-04-12T05:04:32.780Z,92.06
2023-04-12T05:05:35.549Z,90.90
2023-04-12T05:06:38.537Z,89.16
2023-04-12T05:07:41.500Z,90.04
2023-04-12T05:08:43.024Z,89.67
2023-04-12T05:09:45.486Z,89.44
2023-04-12T05:10:50.938Z,88.47
2023-04-12T05:11:53.388Z,87.97
2023-04-12T05:12:54.917Z,89.40
2023-04-12T05:13:57.412Z,88.94
2023-04-12T05:15:11.098Z,88.70
2023-04-12T05:16:14.736Z,87.81
2023-04-12T05:17:16.498Z,87.94
2023-04-12T05:18:19.051Z,88.11
2023-04-12T05:19:20.895Z,88.84
2023-04-12T05:20:23.364Z,88.85
2023-04-12T05:21:26.339Z,89.11
2023-04-12T05:22:29.637Z,88.60
2023-04-12T05:23:35.998Z,87.92
2023-04-12T05:24:37.532Z,86.62
2023-04-12T05:25:46.932Z,85.31
2023-04-12T05:26:49.383Z,84.91
2023-04-12T05:27:52.152Z,84.87
2023-04-12T05:28:55.169Z,84.35
2023-04-12T05:29:57.113Z,84.46
2023-04-12T05:30:59.585Z,84.48
2023-04-12T05:32:01.221Z,84.83
2023-04-12T05:33:03.824Z,86.34
2023-04-12T05:34:05.410Z,87.53
2023-04-12T05:35:08.648Z,87.43
2023-04-12T05:36:10.838Z,88.52
2023-04-12T05:37:13.370Z,88.68
2023-04-12T05:38:16.460Z,88.41
2023-04-12T05:39:20.734Z,89.35
2023-04-12T05:40:22.399Z,90.12
2023-04-12T05:41:24.844Z,90.09
2023-04-12T05:42:27.066Z,89.78
2023-04-12T05:43:29.479Z,88.76
2023-04-12T05:44:31.034Z,88.70
2023-04-12T05:45:33.502Z,88.81
2023-04-12T05:46:35.090Z,88.71
2023-04-12T05:47:37.727Z,88.49
2023-04-12T05:48:40.262Z,88.39
2023-04-12T05:49:41.812Z,89.34
2023-04-12T05:50:51.694Z,90.36
2023-04-12T05:51:53.189Z,89.82
2023-04-12T05:52:56.170Z,88.96
2023-04-12T05:53:59.037Z,88.91
2023-04-12T05:55:01.494Z,88.02
2023-04-12T05:56:03.093Z,86.91
2023-04-12T05:57:05.824Z,86.88
2023-04-12T05:58:08.936Z,86.48
2023-04-12T05:59:12.399Z,86.34
2023-04-12T06:00:17.486Z,85.02
2023-04-12T06:01:21.254Z,86.08
2023-04-12T06:02:26.158Z,86.51
2023-04-12T06:03:30.532Z,85.96
2023-04-12T06:04:48.768Z,85.75
2023-04-12T06:05:53.145Z,86.03
2023-04-12T06:06:56.245Z,86.16
2023-04-12T06:07:59.989Z,86.29
2023-04-12T06:09:04.965Z,85.52
2023-04-12T06:10:10.107Z,84.70
2023-04-12T06:11:18.179Z,84.75
2023-04-12T06:12:20.844Z,85.16
2023-04-12T06:13:23.329Z,84.32
2023-04-12T06:14:25.746Z,84.05
2023-04-12T06:15:28.333Z,83.57
2023-04-12T06:16:30.839Z,83.34
2023-04-12T06:17:33.518Z,84.02
2023-04-12T06:18:35.208Z,83.49
2023-04-12T06:19:37.728Z,82.95
2023-04-12T06:20:39.936Z,83.86
2023-04-12T06:21:42.531Z,82.63
2023-04-12T06:22:44.110Z,82.14
2023-04-12T06:23:46.617Z,81.50
2023-04-12T06:24:50.784Z,81.65
2023-04-12T06:25:53.359Z,81.31
2023-04-12T06:26:57.585Z,81.78
2023-04-12T06:27:59.291Z,81.00
2023-04-12T06:29:02.480Z,81.65
2023-04-12T06:30:05.070Z,81.73
2023-04-12T06:31:11.579Z,81.78
2023-04-12T06:32:13.774Z,82.42
2023-04-12T06:33:16.929Z,81.63
2023-04-12T06:34:18.543Z,82.43
2023-04-12T06:35:21.671Z,82.24
2023-04-12T06:36:23.181Z,82.00
2023-04-12T06:37:25.693Z,81.30
2023-04-12T06:38:27.488Z,81.20
2023-04-12T06:39:30.477Z,80.92
2023-04-12T06:40:34.357Z,81.83
2023-04-12T06:41:35.848Z,80.78
2023-04-12T06:42:38.307Z,79.05
2023-04-12T06:43:39.965Z,80.33
2023-04-12T06:44:42.489Z,79.85
2023-04-12T06:45:44.311Z,78.58
2023-04-12T06:46:47.012Z,78.28
2023-04-12T06:47:49.028Z,78.96
2023-04-12T06:48:51.582Z,78.39
2023-04-12T06:49:56.298Z,78.39
2023-04-12T06:50:59.284Z,78.08
2023-04-12T06:52:01.788Z,77.33
2023-04-12T06:53:05.053Z,77.27
2023-04-12T06:54:07.894Z,77.31
2023-04-12T06:55:09.849Z,77.68
2023-04-12T06:56:14.549Z,78.22
2023-04-12T06:57:17.653Z,78.55
2023-04-12T06:58:20.308Z,78.59
2023-04-12T06:59:21.986Z,77.51
2023-04-12T07:00:25.381Z,78.15
2023-04-12T07:01:27.197Z,77.72
2023-04-12T07:02:29.777Z,77.02
2023-04-12T07:03:33.306Z,77.38
2023-04-12T07:04:36.088Z,78.10
2023-04-12T07:05:38.042Z,77.29
2023-04-12T07:06:40.607Z,77.21
2023-04-12T07:07:42.144Z,77.11
2023-04-12T07:08:45.167Z,75.97
2023-04-12T07:09:48.765Z,75.77
2023-04-12T07:10:53.593Z,76.28
2023-04-12T07:11:57.342Z,76.02
2023-04-12T07:13:03.472Z,75.18
2023-04-12T07:14:06.163Z,76.61
2023-04-12T07:15:08.854Z,75.24
2023-04-12T07:16:11.362Z,75.21
2023-04-12T07:17:12.905Z,75.54
2023-04-12T07:18:15.464Z,75.59
2023-04-12T07:19:17.267Z,75.92
2023-04-12T07:20:19.734Z,75.63
2023-04-12T07:21:21.329Z,75.40
2023-04-12T07:22:24.501Z,75.31
2023-04-12T07:23:27.082Z,75.25
2023-04-12T07:24:28.574Z,74.89
2023-04-12T07:25:31.011Z,74.46
2023-04-12T07:26:32.559Z,74.58
2023-04-12T07:27:36.550Z,74.72
2023-04-12T07:28:39.079Z,73.45
2023-04-12T07:29:41.528Z,74.04
2023-04-12T07:30:43.078Z,74.22
2023-04-12T07:31:46.017Z,73.74
2023-04-12T07:32:47.630Z,75.00
2023-04-12T07:33:50.576Z,74.61
2023-04-12T07:34:53.208Z,74.47
2023-04-12T07:35:56.103Z,74.22
2023-04-12T07:37:01.076Z,73.85
2023-04-12T07:38:04.154Z,74.27
2023-04-12T07:39:05.910Z,73.79
2023-04-12T07:40:09.305Z,72.46
2023-04-12T07:41:11.022Z,72.93
2023-04-12T07:42:15.567Z,74.17
2023-04-12T07:43:18.470Z,72.66
2023-04-12T07:44:20.982Z,73.45
2023-04-12T07:45:25.482Z,73.34
2023-04-12T07:46:28.135Z,72.29
2023-04-12T07:47:30.566Z,71.16
2023-04-12T07:48:33.183Z,71.47
2023-04-12T07:49:35.746Z,70.85
2023-04-12T07:50:38.746Z,70.55
2023-04-12T07:51:42.263Z,70.66
2023-04-12T07:52:44.751Z,70.29
2023-04-12T07:53:48.460Z,70.22
2023-04-12T07:54:50.989Z,70.07
2023-04-12T07:55:53.683Z,69.40
2023-04-12T07:57:00.679Z,69.20
2023-04-12T07:58:04.186Z,69.83
2023-04-12T07:59:08.296Z,69.24
2023-04-12T08:00:11.659Z,69.13
2023-04-12T08:01:25.186Z,68.93
2023-04-12T08:02:27.043Z,69.53
2023-04-12T08:03:29.709Z,69.63
2023-04-12T08:04:31.766Z,69.32
2023-04-12T08:05:34.284Z,69.51
2023-04-12T08:06:35.867Z,69.24
2023-04-12T08:07:38.335Z,68.83
2023-04-12T08:08:39.906Z,68.95
2023-04-12T08:09:42.374Z,69.17
2023-04-12T08:10:43.954Z,68.52
2023-04-12T08:11:47.307Z,69.18
2023-04-12T08:12:49.913Z,69.07
2023-04-12T08:13:52.452Z,67.98
2023-04-12T08:14:56.303Z,66.51
2023-04-12T08:15:58.916Z,67.17
2023-04-12T08:17:01.497Z,68.04
2023-04-12T08:18:03.358Z,69.03
2023-04-12T08:19:05.948Z,68.71
2023-04-12T08:20:09.177Z,68.77
2023-04-12T08:21:10.812Z,67.51
2023-04-12T08:22:13.768Z,66.39
2023-04-12T08:23:16.836Z,66.42
2023-04-12T08:24:19.833Z,65.36
2023-04-12T08:25:22.537Z,65.47
2023-04-12T08:26:24.188Z,65.98
2023-04-12T08:27:27.023Z,66.80
2023-04-12T08:28:29.508Z,66.42
2023-04-12T08:29:31.116Z,66.12
2023-04-12T08:30:35.323Z,65.61
2023-04-12T08:31:37.852Z,66.24
2023-04-12T08:32:41.534Z,67.00
2023-04-12T08:33:44.119Z,66.15
2023-04-12T08:34:46.161Z,66.56
2023-04-12T08:35:49.558Z,66.23
2023-04-12T08:36:52.054Z,66.18
2023-04-12T08:37:53.737Z,66.26
2023-04-12T08:39:00.199Z,67.56
2023-04-12T08:40:08.542Z,66.16
2023-04-12T08:41:10.867Z,66.14
2023-04-12T08:42:16.220Z,65.35
2023-04-12T08:43:20.377Z,67.07
2023-04-12T08:44:33.408Z,66.33
2023-04-12T08:45:38.712Z,66.51
2023-04-12T08:46:42.268Z,66.39
2023-04-12T08:47:45.147Z,65.20
2023-04-12T08:48:49.729Z,65.81
2023-04-12T08:49:51.317Z,64.37
2023-04-12T08:50:57.033Z,64.25
2023-04-12T08:52:00.658Z,63.37
2023-04-12T08:53:04.161Z,63.13
2023-04-12T08:54:06.951Z,63.46
2023-04-12T08:55:12.913Z,63.26
2023-04-12T08:56:17.548Z,62.46
2023-04-12T08:57:19.477Z,62.39
2023-04-12T08:58:23.089Z,62.14
2023-04-12T08:59:25.856Z,62.43
2023-04-12T09:00:28.705Z,62.63
2023-04-12T09:01:32.615Z,62.36
2023-04-12T09:02:35.958Z,63.13
2023-04-12T09:03:39.089Z,63.75
2023-04-12T09:04:49.513Z,63.76
2023-04-12T09:05:52.027Z,63.74
2023-04-12T09:06:53.769Z,63.17
2023-04-12T09:07:56.263Z,62.50
2023-04-12T09:09:00.317Z,63.65
2023-04-12T09:10:02.074Z,63.72
2023-04-12T09:11:23.129Z,62.81
2023-04-12T09:12:25.843Z,63.08
2023-04-12T09:13:34.567Z,63.30
2023-04-12T09:14:37.552Z,62.41
2023-04-12T09:15:50.062Z,62.86
2023-04-12T09:16:52.966Z,63.38
2023-04-12T09:18:07.354Z,63.50
2023-04-12T09:19:10.418Z,63.99
2023-04-12T09:20:24.971Z,63.65
2023-04-12T09:21:28.017Z,63.39
2023-04-12T09:22:40.274Z,63.36
2023-04-12T09:23:41.887Z,63.23
2023-04-12T09:24:48.699Z,63.15
2023-04-12T09:25:53.265Z,63.49
2023-04-12T09:27:03.068Z,62.06
2023-04-12T09:28:18.270Z,62.99
2023-04-12T09:29:25.099Z,62.39
2023-04-12T09:30:26.715Z,62.85
2023-04-12T09:31:29.438Z,62.57
2023-04-12T09:32:32.408Z,61.99
2023-04-12T09:33:36.962Z,62.83
2023-04-12T09:34:38.994Z,62.78
2023-04-12T09:35:42.955Z,62.44
2023-04-12T09:36:45.609Z,62.61
2023-04-12T09:37:57.327Z,61.63
2023-04-12T09:39:02.236Z,61.10
2023-04-12T09:40:05.411Z,61.41
2023-04-12T09:41:22.294Z,60.75
2023-04-12T09:42:33.364Z,60.31
2023-04-12T09:43:37.341Z,60.66
2023-04-12T09:44:40.584Z,60.25
2023-04-12T09:45:43.221Z,59.82
2023-04-12T09:46:51.857Z,59.44
2023-04-12T09:47:56.488Z,59.52
2023-04-12T09:49:00.224Z,60.09
2023-04-12T09:50:04.578Z,59.88
2023-04-12T09:51:07.297Z,60.20
2023-04-12T09:52:11.069Z,59.94
2023-04-12T09:53:18.223Z,60.10
2023-04-12T09:54:20.032Z,59.61
2023-04-12T09:55:26.333Z,60.20
2023-04-12T09:56:30.743Z,60.61
2023-04-12T09:57:34.417Z,59.81
2023-04-12T09:58:36.885Z,59.73
2023-04-12T09:59:41.334Z,59.76
2023-04-12T10:00:44.472Z,59.52
2023-04-12T10:01:47.049Z,60.22
2023-04-12T10:02:52.088Z,59.81
2023-04-12T10:03:56.303Z,60.22
2023-04-12T10:04:59.726Z,60.24
2023-04-12T10:06:04.652Z,59.44
2023-04-12T10:07:06.836Z,59.43
2023-04-12T10:08:09.553Z,58.72
2023-04-12T10:09:13.103Z,59.34
2023-04-12T10:10:27.808Z,59.16
2023-04-12T10:11:44.501Z,59.11
2023-04-12T10:13:04.917Z,59.81
2023-04-12T10:14:34.327Z,59.15
2023-04-12T10:15:41.213Z,59.01
2023-04-12T10:17:01.511Z,59.61
2023-04-12T10:18:08.332Z,60.40
2023-04-12T10:19:18.703Z,60.19
2023-04-12T10:20:26.185Z,60.55
2023-04-12T10:21:30.661Z,60.91
2023-04-12T10:22:35.187Z,61.47
2023-04-12T10:23:37.794Z,61.72
2023-04-12T10:24:40.640Z,61.82
2023-04-12T10:25:46.531Z,62.08
2023-04-12T10:26:50.251Z,61.76
2023-04-12T10:27:52.931Z,61.97
2023-04-12T10:29:26.867Z,61.73
2023-04-12T10:30:30.555Z,61.85
2023-04-12T10:31:34.220Z,62.10
2023-04-12T10:32:36.446Z,62.49
2023-04-12T10:33:40.373Z,62.42
2023-04-12T10:34:43.563Z,62.73
2023-04-12T10:35:52.046Z,62.09
2023-04-12T10:36:56.080Z,61.80
2023-04-12T10:37:58.916Z,62.03
2023-04-12T10:39:10.444Z,62.41
2023-04-12T10:40:17.309Z,63.04
2023-04-12T10:41:21.455Z,63.51
2023-04-12T10:42:26.829Z,63.52
2023-04-12T10:43:30.034Z,62.73
2023-04-12T10:44:31.781Z,62.55
2023-04-12T10:45:38.725Z,63.18
2023-04-12T10:46:53.723Z,63.02
2023-04-12T10:48:03.567Z,63.16
2023-04-12T10:49:10.134Z,63.81
2023-04-12T10:50:25.529Z,63.59
2023-04-12T10:51:28.521Z,64.05
2023-04-12T10:52:30.286Z,63.91
2023-04-12T10:53:32.721Z,63.71
2023-04-12T10:54:35.666Z,63.91
2023-04-12T10:55:38.670Z,63.83
2023-04-12T10:56:42.592Z,63.88
2023-04-12T10:57:45.336Z,64.08
2023-04-12T10:59:00.464Z,64.53
2023-04-12T11:00:03.702Z,64.26
2023-04-12T11:01:11.841Z,63.92
2023-04-12T11:02:15.817Z,64.72
2023-04-12T11:03:18.126Z,64.81
2023-04-12T11:04:23.011Z,65.15
2023-04-12T11:05:26.232Z,65.11
2023-04-12T11:06:47.981Z,65.03
2023-04-12T11:07:54.693Z,65.04
2023-04-12T11:08:57.139Z,64.49
2023-04-12T11:10:01.758Z,64.44
2023-04-12T11:11:05.736Z,63.99
2023-04-12T11:12:15.321Z,64.23
2023-04-12T11:13:17.084Z,64.22
2023-04-12T11:14:28.333Z,64.99
2023-04-12T11:15:33.310Z,65.25
2023-04-12T11:16:35.835Z,65.29
2023-04-12T11:17:38.502Z,65.31
2023-04-12T11:18:40.463Z,66.06
2023-04-12T11:19:45.684Z,66.28
2023-04-12T11:20:51.546Z,66.45
2023-04-12T11:21:53.837Z,66.30
2023-04-12T11:22:56.845Z,66.06
2023-04-12T11:23:58.927Z,67.35
2023-04-12T11:25:03.042Z,68.03
2023-04-12T11:26:06.154Z,68.17
2023-04-12T11:27:09.688Z,68.54
2023-04-12T11:28:27.935Z,68.17
2023-04-12T11:29:32.614Z,67.86
2023-04-12T11:30:35.165Z,69.41
2023-04-12T11:31:38.591Z,70.39
2023-04-12T11:32:42.172Z,70.62
2023-04-12T11:33:45.383Z,72.01
2023-04-12T11:34:50.572Z,71.75
2023-04-12T11:35:55.204Z,73.01
2023-04-12T11:37:04.395Z,73.56
2023-04-12T11:38:08.312Z,73.21
2023-04-12T11:39:10.848Z,73.83
2023-04-12T11:40:17.668Z,74.06
2023-04-12T11:41:19.687Z,75.14
2023-04-12T11:42:24.701Z,75.32
2023-04-12T11:43:26.937Z,74.53
2023-04-12T11:44:37.902Z,76.46
2023-04-12T11:45:56.395Z,77.81
2023-04-12T11:46:59.214Z,77.85
2023-04-12T11:48:02.017Z,77.73
2023-04-12T11:49:03.986Z,77.42
2023-04-12T11:50:08.248Z,79.03
2023-04-12T11:51:30.795Z,77.97
2023-04-12T11:52:36.183Z,79.32
2023-04-12T11:53:37.928Z,77.72
2023-04-12T11:54:43.811Z,80.13
2023-04-12T11:55:49.373Z,80.62
2023-04-12T11:56:51.237Z,80.19
2023-04-12T11:57:56.035Z,80.16
2023-04-12T11:58:57.646Z,81.00
2023-04-12T12:00:00.810Z,79.75
2023-04-12T12:01:04.006Z,80.56
2023-04-12T12:02:21.231Z,80.16
2023-04-12T12:03:26.076Z,82.73
2023-04-12T12:04:29.099Z,82.32
2023-04-12T12:05:36.682Z,83.41
2023-04-12T12:06:40.489Z,83.39
2023-04-12T12:07:43.337Z,86.01
2023-04-12T12:08:44.961Z,85.68
2023-04-12T12:09:47.802Z,87.22
2023-04-12T12:11:06.339Z,86.46
2023-04-12T12:12:11.525Z,84.77
2023-04-12T12:13:14.200Z,85.10
2023-04-12T12:14:19.878Z,85.69
2023-04-12T12:15:22.566Z,85.98
2023-04-12T12:16:25.747Z,86.12
2023-04-12T12:17:28.803Z,87.37
2023-04-12T12:18:30.626Z,89.03
2023-04-12T12:19:39.987Z,89.38
2023-04-12T12:20:42.522Z,89.55
2023-04-12T12:21:47.163Z,90.46
2023-04-12T12:22:49.140Z,90.12
2023-04-12T12:23:51.776Z,89.98
2023-04-12T12:24:56.852Z,88.89
2023-04-12T12:26:10.588Z,90.10
2023-04-12T12:27:22.960Z,91.21
2023-04-12T12:28:24.568Z,90.92
2023-04-12T12:29:27.249Z,90.82
2023-04-12T12:30:30.687Z,91.49
2023-04-12T12:31:33.657Z,91.41
2023-04-12T12:32:38.280Z,91.24
2023-04-12T12:33:46.539Z,92.01
2023-04-12T12:34:55.189Z,93.08
2023-04-12T12:35:56.794Z,93.17
2023-04-12T12:37:00.718Z,94.08
2023-04-12T12:38:08.586Z,94.47
2023-04-12T12:39:12.024Z,96.30
2023-04-12T12:40:15.602Z,95.63
2023-04-12T12:41:18.446Z,97.63
2023-04-12T12:42:20.906Z,97.24
2023-04-12T12:43:22.496Z,97.63
2023-04-12T12:44:25.358Z,97.50
2023-04-12T12:45:30.236Z,97.41
2023-04-12T12:46:50.786Z,97.37
2023-04-12T12:47:56.562Z,98.35
2023-04-12T12:48:59.363Z,96.44
2023-04-12T12:50:00.869Z,97.31
2023-04-12T12:51:03.483Z,96.77
2023-04-12T12:52:06.746Z,96.95
2023-04-12T12:53:10.302Z,94.82
2023-04-12T12:54:12.156Z,93.86
2023-04-12T12:55:15.342Z,95.38
2023-04-12T12:56:17.142Z,97.37
2023-04-12T12:57:19.751Z,96.50
2023-04-12T12:58:21.384Z,96.38
2023-04-12T12:59:25.904Z,97.72
2023-04-12T13:00:28.950Z,97.37
2023-04-12T13:01:31.438Z,97.29
2023-04-12T13:02:34.473Z,95.05
2023-04-12T13:03:36.239Z,93.15
2023-04-12T13:04:39.304Z,96.06
2023-04-12T13:05:42.229Z,96.03
2023-04-12T13:06:43.716Z,96.15
2023-04-12T13:07:47.746Z,97.85
2023-04-12T13:08:49.252Z,97.63
2023-04-12T13:09:51.860Z,97.81
2023-04-12T13:10:53.420Z,99.59
2023-04-12T13:11:57.176Z,98.99
2023-04-12T13:12:58.822Z,98.52
2023-04-12T13:14:03.886Z,98.09
2023-04-12T13:15:21.433Z,95.86
2023-04-12T13:16:27.180Z,97.43
2023-04-12T13:17:30.397Z,96.85
2023-04-12T13:18:33.154Z,96.61
2023-04-12T13:19:34.683Z,97.36
2023-04-12T13:20:37.179Z,97.98
2023-04-12T13:21:38.725Z,97.34
2023-04-12T13:22:41.287Z,98.59
2023-04-12T13:23:44.474Z,97.76
2023-04-12T13:24:47.125Z,99.64
2023-04-12T13:25:48.671Z,99.62
2023-04-12T13:26:51.760Z,99.83
2023-04-12T13:27:54.293Z,100.00
2023-04-12T13:28:55.984Z,100.00
2023-04-12T13:29:58.774Z,99.06
2023-04-12T13:31:01.671Z,99.22
2023-04-12T13:32:03.381Z,99.22
2023-04-12T13:33:06.006Z,99.23
2023-04-12T13:34:07.656Z,98.01
2023-04-12T13:35:10.556Z,98.10
2023-04-12T13:36:12.748Z,98.19
2023-04-12T13:37:15.597Z,98.62
2023-04-12T13:38:17.138Z,97.70
2023-04-12T13:39:22.418Z,96.63
2023-04-12T13:40:24.088Z,96.10
2023-04-12T13:41:26.761Z,97.34
2023-04-12T13:42:29.384Z,96.58
2023-04-12T13:43:31.855Z,96.16